createdAt,value
2019-03-23T00:00:24.858Z,8.30
2019-03-23T00:03:26.418Z,10.27
2019-03-23T00:06:30.187Z,9.70
2019-03-23T00:09:35.071Z,9.03
2019-03-23T00:12:21.041Z,8.77
2019-03-23T00:15:22.312Z,9.87
2019-03-23T00:18:21.304Z,10.40
2019-03-23T00:21:11.750Z,9.70
2019-03-23T00:23:56.297Z,10.33
2019-03-23T00:26:41.336Z,9.63
2019-03-23T00:29:32.756Z,9.87
2019-03-23T00:32:42.751Z,10.93
2019-03-23T00:35:23.686Z,8.93
2019-03-23T00:38:11.974Z,9.20
2019-03-23T00:41:10.110Z,9.17
2019-03-23T00:43:59.735Z,8.67
2019-03-23T00:46:52.540Z,9.33
2019-03-23T00:49:43.962Z,10.03
2019-03-23T00:52:42.532Z,9.43
2019-03-23T00:55:27.170Z,9.53
2019-03-23T00:58:14.944Z,9.97
2019-03-23T01:01:18.509Z,9.83
2019-03-23T01:04:20.379Z,9.80
2019-03-23T01:07:03.300Z,11.90
2019-03-23T01:09:48.270Z,10.13
2019-03-23T01:12:30.885Z,8.80
2019-03-23T01:15:20.189Z,10.77
2019-03-23T01:18:17.586Z,9.93
2019-03-23T01:21:07.944Z,8.27
2019-03-23T01:23:51.864Z,9.07
2019-03-23T01:26:48.591Z,8.20
2019-03-23T01:29:32.558Z,9.00
2019-03-23T01:32:28.979Z,8.30
2019-03-23T01:35:19.499Z,9.27
2019-03-23T01:38:10.615Z,9.10
2019-03-23T01:41:09.799Z,8.57
2019-03-23T01:44:02.684Z,9.37
2019-03-23T01:46:47.339Z,10.60
2019-03-23T01:49:31.271Z,8.73
2019-03-23T01:52:18.099Z,8.93
2019-03-23T01:55:10.631Z,9.87
2019-03-23T01:58:00.227Z,8.67
2019-03-23T02:00:47.026Z,8.90
2019-03-23T02:03:42.227Z,8.73
2019-03-23T02:06:39.336Z,8.67
2019-03-23T02:09:27.709Z,9.07
2019-03-23T02:12:30.004Z,10.00
2019-03-23T02:15:24.190Z,9.90
2019-03-23T02:18:15.917Z,10.63
2019-03-23T02:21:04.887Z,9.10
2019-03-23T02:24:09.736Z,8.97
2019-03-23T02:27:02.795Z,7.93
2019-03-23T02:29:49.606Z,7.93
2019-03-23T02:32:43.791Z,9.23
2019-03-23T02:38:48.649Z,8.03
2019-03-23T02:41:39.303Z,8.33
2019-03-23T02:44:26.777Z,8.20
2019-03-23T02:47:12.194Z,7.63
2019-03-23T02:50:00.544Z,7.57
2019-03-23T02:52:43.471Z,8.73
2019-03-23T02:55:35.458Z,8.50
2019-03-23T02:58:18.632Z,8.10
2019-03-23T03:01:05.608Z,8.00
2019-03-23T03:04:09.414Z,8.60
2019-03-23T03:07:04.370Z,7.27
2019-03-23T03:09:51.536Z,8.47
2019-03-23T03:12:41.935Z,7.93
2019-03-23T03:15:31.061Z,8.57
2019-03-23T03:18:26.107Z,7.13
2019-03-23T03:21:12.162Z,8.93
2019-03-23T03:23:55.837Z,9.10
2019-03-23T03:26:43.235Z,7.07
2019-03-23T03:29:32.808Z,8.33
2019-03-23T03:32:33.110Z,7.80
2019-03-23T03:35:18.839Z,7.00
2019-03-23T03:38:05.563Z,6.50
2019-03-23T03:40:46.518Z,7.33
2019-03-23T03:43:39.353Z,7.37
2019-03-23T03:46:28.030Z,7.57
2019-03-23T03:49:12.571Z,7.50
2019-03-23T03:51:50.695Z,6.90
2019-03-23T03:54:45.301Z,6.87
2019-03-23T03:57:28.322Z,7.47
2019-03-23T04:00:13.807Z,7.87
2019-03-23T04:03:09.229Z,7.23
2019-03-23T04:05:50.598Z,7.37
2019-03-23T04:08:43.443Z,9.30
2019-03-23T04:11:41.034Z,6.93
2019-03-23T04:14:29.464Z,7.47
2019-03-23T04:17:16.512Z,8.53
2019-03-23T04:20:17.831Z,10.00
2019-03-23T04:23:06.908Z,7.47
2019-03-23T04:26:04.075Z,8.10
2019-03-23T04:28:49.139Z,7.60
2019-03-23T04:31:35.131Z,6.30
2019-03-23T04:34:24.710Z,6.50
2019-03-23T04:37:23.586Z,5.90
2019-03-23T04:40:27.133Z,6.77
2019-03-23T04:43:11.977Z,6.60
2019-03-23T04:45:58.584Z,6.53
2019-03-23T04:48:47.472Z,7.67
2019-03-23T04:51:32.516Z,7.50
2019-03-23T04:54:19.019Z,7.33
2019-03-23T04:57:05.934Z,6.63
2019-03-23T04:59:52.132Z,7.83
2019-03-23T05:02:40.685Z,7.23
2019-03-23T05:05:29.690Z,8.63
2019-03-23T05:08:17.937Z,7.90
2019-03-23T05:11:01.327Z,7.87
2019-03-23T05:14:01.554Z,8.20
2019-03-23T05:16:38.228Z,8.17
2019-03-23T05:19:29.806Z,7.83
2019-03-23T05:22:26.391Z,8.13
2019-03-23T05:25:25.862Z,6.67
2019-03-23T05:28:15.025Z,7.03
2019-03-23T05:31:11.364Z,6.17
2019-03-23T05:34:04.155Z,6.17
2019-03-23T05:36:54.591Z,6.50
2019-03-23T05:39:51.774Z,7.00
2019-03-23T05:42:42.481Z,5.63
2019-03-23T05:45:41.787Z,5.90
2019-03-23T05:48:27.093Z,5.63
2019-03-23T05:51:17.464Z,6.80
2019-03-23T05:53:59.651Z,6.27
2019-03-23T05:56:58.772Z,6.80
2019-03-23T05:59:43.029Z,7.00
2019-03-23T06:02:33.547Z,6.23
2019-03-23T06:05:28.732Z,7.30
2019-03-23T06:08:15.443Z,7.87
2019-03-23T06:11:12.597Z,8.20
2019-03-23T06:14:05.467Z,6.23
2019-03-23T06:16:52.790Z,5.83
2019-03-23T06:19:39.814Z,6.37
2019-03-23T06:22:32.133Z,7.37
2019-03-23T06:25:34.094Z,7.80
2019-03-23T06:28:40.372Z,7.37
2019-03-23T06:31:24.117Z,6.40
2019-03-23T06:34:06.829Z,5.83
2019-03-23T06:36:55.811Z,8.40
2019-03-23T06:39:45.488Z,11.37
2019-03-23T06:42:40.985Z,9.43
2019-03-23T06:45:23.598Z,12.47
2019-03-23T06:48:16.043Z,9.37
2019-03-23T06:50:54.682Z,7.97
2019-03-23T06:53:42.497Z,7.27
2019-03-23T06:56:52.474Z,7.93
2019-03-23T06:59:45.249Z,6.90
2019-03-23T07:02:32.372Z,7.10
2019-03-23T07:05:17.854Z,7.03
2019-03-23T07:08:08.323Z,8.10
2019-03-23T07:10:59.753Z,8.50
2019-03-23T07:13:49.663Z,7.13
2019-03-23T07:16:29.519Z,7.77
2019-03-23T07:19:19.565Z,9.10
2019-03-23T07:22:10.413Z,7.07
2019-03-23T07:25:04.811Z,7.57
2019-03-23T07:27:49.728Z,7.90
2019-03-23T07:30:37.563Z,8.97
2019-03-23T07:33:24.428Z,8.60
2019-03-23T07:36:14.360Z,7.90
2019-03-23T07:38:56.465Z,8.33
2019-03-23T07:41:44.301Z,9.30
2019-03-23T07:44:31.321Z,7.87
2019-03-23T07:47:18.909Z,7.87
2019-03-23T07:50:10.542Z,7.43
2019-03-23T07:53:00.560Z,7.73
2019-03-23T07:55:42.414Z,7.70
2019-03-23T07:58:34.419Z,8.67
2019-03-23T08:01:32.436Z,7.97
2019-03-23T08:04:18.929Z,9.33
2019-03-23T08:07:09.546Z,9.10
2019-03-23T08:10:07.623Z,9.20
2019-03-23T08:12:55.238Z,9.10
2019-03-23T08:15:44.119Z,9.17
2019-03-23T08:18:33.798Z,10.87
2019-03-23T08:21:33.390Z,10.27
2019-03-23T08:24:50.062Z,9.80
2019-03-23T08:27:41.635Z,9.67
2019-03-23T08:30:33.235Z,9.20
2019-03-23T08:33:14.759Z,11.53
2019-03-23T08:36:08.553Z,14.63
2019-03-23T08:39:01.360Z,15.03
2019-03-23T08:42:05.712Z,16.60
2019-03-23T08:45:03.179Z,13.93
2019-03-23T08:47:47.248Z,13.90
2019-03-23T08:50:36.080Z,14.37
2019-03-23T08:56:40.047Z,18.60
2019-03-23T08:59:26.329Z,16.20
2019-03-23T09:02:15.929Z,16.10
2019-03-23T09:05:06.024Z,14.57
2019-03-23T09:07:52.632Z,15.03
2019-03-23T09:10:41.574Z,16.67
2019-03-23T09:13:49.505Z,15.17
2019-03-23T09:16:26.179Z,16.97
2019-03-23T09:19:22.210Z,20.80
2019-03-23T09:22:14.971Z,15.77
2019-03-23T09:25:00.287Z,17.07
2019-03-23T09:27:47.123Z,18.87
2019-03-23T09:30:40.488Z,16.10
2019-03-23T09:33:29.594Z,15.90
2019-03-23T09:36:23.372Z,20.13
2019-03-23T09:39:11.983Z,16.20
2019-03-23T09:42:02.324Z,17.30
2019-03-23T09:44:51.800Z,16.10
2019-03-23T09:47:36.362Z,20.73
2019-03-23T09:50:17.648Z,17.30
2019-03-23T09:53:03.482Z,16.87
2019-03-23T09:56:00.682Z,20.67
2019-03-23T09:59:08.647Z,18.17
2019-03-23T10:01:48.194Z,17.07
2019-03-23T10:04:37.351Z,16.53
2019-03-23T10:07:29.700Z,16.83
2019-03-23T10:10:23.893Z,18.10
2019-03-23T10:13:07.622Z,17.07
2019-03-23T10:15:58.838Z,18.75
2019-03-23T10:19:07.164Z,21.70
2019-03-23T10:21:55.784Z,18.35
2019-03-23T10:24:39.937Z,17.42
2019-03-23T10:27:37.617Z,19.87
2019-03-23T10:30:39.659Z,17.20
2019-03-23T10:33:25.977Z,18.85
2019-03-23T10:36:15.758Z,20.43
2019-03-23T10:39:02.989Z,20.08
2019-03-23T10:41:49.689Z,20.97
2019-03-23T10:44:43.773Z,19.40
2019-03-23T10:47:34.826Z,21.68
2019-03-23T10:50:22.124Z,21.60
2019-03-23T10:53:22.808Z,20.55
2019-03-23T10:56:04.764Z,19.45
2019-03-23T10:58:52.196Z,22.17
2019-03-23T11:02:07.578Z,19.65
2019-03-23T11:05:11.873Z,22.90
2019-03-23T11:08:16.307Z,24.30
2019-03-23T11:11:09.581Z,22.50
2019-03-23T11:13:56.599Z,21.33
2019-03-23T11:16:44.759Z,21.43
2019-03-23T11:20:00.962Z,20.43
2019-03-23T11:22:50.521Z,19.77
2019-03-23T11:25:43.988Z,20.00
2019-03-23T11:28:32.952Z,20.90
2019-03-23T11:31:17.819Z,20.27
2019-03-23T11:34:18.299Z,21.53
2019-03-23T11:37:15.058Z,22.97
2019-03-23T11:39:53.852Z,24.80
2019-03-23T11:43:00.086Z,24.60
2019-03-23T11:45:46.079Z,22.70
2019-03-23T11:48:37.090Z,22.37
2019-03-23T11:51:24.866Z,23.23
2019-03-23T11:54:15.220Z,27.70
2019-03-23T11:57:09.712Z,24.20
2019-03-23T11:59:59.425Z,23.17
2019-03-23T12:02:52.143Z,22.23
2019-03-23T12:05:35.630Z,26.67
2019-03-23T12:08:30.068Z,29.43
2019-03-23T12:11:16.222Z,24.17
2019-03-23T12:14:08.359Z,22.33
2019-03-23T12:16:53.842Z,22.73
2019-03-23T12:19:50.794Z,22.73
2019-03-23T12:22:41.947Z,21.90
2019-03-23T12:25:31.525Z,25.20
2019-03-23T12:28:18.609Z,22.37
2019-03-23T12:31:10.751Z,23.23
2019-03-23T12:34:04.673Z,22.07
2019-03-23T12:36:56.487Z,27.53
2019-03-23T12:39:52.496Z,22.37
2019-03-23T12:42:38.443Z,22.23
2019-03-23T12:45:43.548Z,27.13
2019-03-23T12:48:27.679Z,30.57
2019-03-23T12:51:19.219Z,26.47
2019-03-23T12:53:58.651Z,27.23
2019-03-23T12:56:48.942Z,24.70
2019-03-23T12:59:47.249Z,21.77
2019-03-23T13:02:35.922Z,20.70
2019-03-23T13:05:31.727Z,22.87
2019-03-23T13:08:28.969Z,22.43
2019-03-23T13:11:35.570Z,21.57
2019-03-23T13:15:02.369Z,22.80
2019-03-23T13:17:16.439Z,25.57
2019-03-23T13:20:03.615Z,28.77
2019-03-23T13:22:48.208Z,26.23
2019-03-23T13:25:36.969Z,25.83
2019-03-23T13:28:18.587Z,27.23
2019-03-23T13:31:07.531Z,24.03
2019-03-23T13:34:00.081Z,23.93
2019-03-23T13:36:51.579Z,22.43
2019-03-23T13:39:38.922Z,82.08
2019-03-23T13:42:29.217Z,32.83
2019-03-23T13:45:21.148Z,30.83
2019-03-23T13:48:09.600Z,28.77
2019-03-23T13:50:56.208Z,30.87
2019-03-23T13:53:44.862Z,30.27
2019-03-23T13:56:30.172Z,28.23
2019-03-23T13:59:14.287Z,31.63
2019-03-23T14:02:00.690Z,29.37
2019-03-23T14:04:42.792Z,29.67
2019-03-23T14:07:24.938Z,27.33
2019-03-23T14:10:03.103Z,28.03
2019-03-23T14:12:47.404Z,29.13
2019-03-23T14:15:27.766Z,30.30
2019-03-23T14:18:03.655Z,28.63
2019-03-23T14:20:42.231Z,26.83
2019-03-23T14:23:26.702Z,27.70
2019-03-23T14:26:18.333Z,27.80
2019-03-23T14:28:54.410Z,29.50
2019-03-23T14:31:37.211Z,28.30
2019-03-23T14:34:21.095Z,29.77
2019-03-23T14:37:05.105Z,29.00
2019-03-23T14:39:47.449Z,28.30
2019-03-23T14:42:32.418Z,28.27
2019-03-23T14:45:14.593Z,28.50
2019-03-23T14:47:59.797Z,30.27
2019-03-23T14:50:48.668Z,27.50
2019-03-23T14:53:27.865Z,28.37
2019-03-23T14:56:13.022Z,29.97
2019-03-23T14:58:59.650Z,28.80
2019-03-23T15:01:48.515Z,30.17
2019-03-23T15:04:41.801Z,30.93
2019-03-23T15:07:20.351Z,28.17
2019-03-23T15:10:16.729Z,26.73
2019-03-23T15:13:04.825Z,27.13
2019-03-23T15:15:58.029Z,27.90
2019-03-23T15:18:50.186Z,29.70
2019-03-23T15:21:51.233Z,26.97
2019-03-23T15:24:38.152Z,29.80
2019-03-23T15:27:33.568Z,31.37
2019-03-23T15:30:10.035Z,28.63
2019-03-23T15:33:01.770Z,29.03
2019-03-23T15:35:51.339Z,29.80
2019-03-23T15:38:37.663Z,29.83
2019-03-23T15:41:22.097Z,30.97
2019-03-23T15:43:59.694Z,31.17
2019-03-23T15:46:49.581Z,29.83
2019-03-23T15:49:28.484Z,28.37
2019-03-23T15:52:17.387Z,29.80
2019-03-23T15:55:11.754Z,29.23
2019-03-23T15:57:58.258Z,30.43
2019-03-23T16:00:40.147Z,29.43
2019-03-23T16:03:20.723Z,29.13
2019-03-23T16:06:27.902Z,30.60
2019-03-23T16:08:58.064Z,30.60
2019-03-23T16:11:35.525Z,29.40
2019-03-23T16:14:14.048Z,30.30
2019-03-23T16:16:55.610Z,29.20
2019-03-23T16:19:35.174Z,31.57
2019-03-23T16:22:23.174Z,31.07
2019-03-23T16:25:15.252Z,29.57
2019-03-23T16:27:53.562Z,30.67
2019-03-23T16:30:36.428Z,32.10
2019-03-23T16:33:18.903Z,29.77
2019-03-23T16:36:00.146Z,30.63
2019-03-23T16:38:40.945Z,34.83
2019-03-23T16:41:37.031Z,35.27
2019-03-23T16:44:23.024Z,37.47
2019-03-23T16:47:12.237Z,35.33
2019-03-23T16:49:58.126Z,37.10
2019-03-23T16:52:41.522Z,36.70
2019-03-23T16:55:33.969Z,36.57
2019-03-23T16:58:16.314Z,34.90
2019-03-23T17:01:00.427Z,34.50
2019-03-23T17:03:58.198Z,36.67
2019-03-23T17:06:46.095Z,35.67
2019-03-23T17:09:13.585Z,36.43
2019-03-23T17:11:46.545Z,37.10
2019-03-23T17:14:19.524Z,34.63
2019-03-23T17:16:52.556Z,34.77
2019-03-23T17:19:25.602Z,33.80
2019-03-23T17:21:58.640Z,35.23
2019-03-23T17:24:31.623Z,35.20
2019-03-23T17:27:04.642Z,34.13
2019-03-23T17:29:37.638Z,28.57
2019-03-23T17:32:10.701Z,31.03
2019-03-23T17:34:43.681Z,33.53
2019-03-23T17:37:16.634Z,36.87
2019-03-23T17:39:49.613Z,36.30
2019-03-23T17:42:22.560Z,37.33
2019-03-23T17:44:55.541Z,36.90
2019-03-23T17:47:28.527Z,37.40
2019-03-23T17:50:01.610Z,36.53
2019-03-23T17:52:34.609Z,36.97
2019-03-23T17:55:07.817Z,35.77
2019-03-23T17:57:40.777Z,36.80
2019-03-23T18:00:14.052Z,33.80
2019-03-23T18:02:47.092Z,34.80
2019-03-23T18:05:20.066Z,32.00
2019-03-23T18:07:53.141Z,34.03
2019-03-23T18:10:28.195Z,34.83
2019-03-23T18:13:00.899Z,34.97
2019-03-23T18:15:33.965Z,33.13
2019-03-23T18:18:06.950Z,31.10
2019-03-23T18:20:39.923Z,30.23
2019-03-23T18:23:12.877Z,36.43
2019-03-23T18:25:45.874Z,38.93
2019-03-23T18:28:19.006Z,37.87
2019-03-23T18:30:51.991Z,39.00
2019-03-23T18:33:24.954Z,37.73
2019-03-23T18:35:57.937Z,40.33
2019-03-23T18:38:30.966Z,38.63
2019-03-23T18:41:03.953Z,37.97
2019-03-23T18:43:40.369Z,41.23
2019-03-23T18:46:13.417Z,41.93
2019-03-23T18:48:46.578Z,41.10
2019-03-23T18:51:19.679Z,41.03
2019-03-23T18:53:52.646Z,41.67
2019-03-23T18:56:25.893Z,42.17
2019-03-23T18:58:59.153Z,41.70
2019-03-23T19:01:32.132Z,39.50
2019-03-23T19:04:05.210Z,43.33
2019-03-23T19:06:38.335Z,43.87
2019-03-23T19:09:12.794Z,43.70
2019-03-23T19:11:46.034Z,44.40
2019-03-23T19:14:19.111Z,46.07
2019-03-23T19:16:52.225Z,47.27
2019-03-23T19:19:25.348Z,44.40
2019-03-23T19:21:58.571Z,46.33
2019-03-23T19:24:31.643Z,42.17
2019-03-23T19:27:04.871Z,44.67
2019-03-23T19:29:38.013Z,42.57
2019-03-23T19:32:11.179Z,43.80
2019-03-23T19:34:44.187Z,43.53
2019-03-23T19:37:17.198Z,42.73
2019-03-23T19:39:50.218Z,40.43
2019-03-23T19:42:23.207Z,38.37
2019-03-23T19:44:56.409Z,38.00
2019-03-23T19:47:29.379Z,42.00
2019-03-23T19:50:02.614Z,40.30
2019-03-23T19:52:36.820Z,37.83
2019-03-23T19:55:10.212Z,41.33
2019-03-23T19:57:43.379Z,40.30
2019-03-23T20:00:16.529Z,40.30
2019-03-23T20:02:49.675Z,38.90
2019-03-23T20:05:22.791Z,40.10
2019-03-23T20:07:55.820Z,39.90
2019-03-23T20:10:28.789Z,37.53
2019-03-23T20:13:01.936Z,38.03
2019-03-23T20:15:35.012Z,39.23
2019-03-23T20:18:08.190Z,39.17
2019-03-23T20:20:41.187Z,38.57
2019-03-23T20:23:14.378Z,35.73
2019-03-23T20:25:47.704Z,38.27
2019-03-23T20:28:20.752Z,39.37
2019-03-23T20:30:54.968Z,37.67
2019-03-23T20:33:28.024Z,37.60
2019-03-23T20:36:01.005Z,37.13
2019-03-23T20:38:34.215Z,36.57
2019-03-23T20:41:07.448Z,36.47
2019-03-23T20:43:40.495Z,37.93
2019-03-23T20:46:13.677Z,36.97
2019-03-23T20:48:47.118Z,37.57
2019-03-23T20:51:21.608Z,35.47
2019-03-23T20:53:54.660Z,33.67
2019-03-23T20:56:27.794Z,36.47
2019-03-23T20:59:00.775Z,34.87
2019-03-23T21:01:33.880Z,32.63
2019-03-23T21:04:06.879Z,33.10
2019-03-23T21:06:39.846Z,33.77
2019-03-23T21:09:12.824Z,32.07
2019-03-23T21:11:45.854Z,30.70
2019-03-23T21:14:20.438Z,34.03
2019-03-23T21:16:53.702Z,30.60
2019-03-23T21:19:26.813Z,29.80
2019-03-23T21:21:59.820Z,29.93
2019-03-23T21:24:32.842Z,30.47
2019-03-23T21:27:05.831Z,27.87
2019-03-23T21:29:41.158Z,28.10
2019-03-23T21:32:13.600Z,26.93
2019-03-23T21:34:46.570Z,28.67
2019-03-23T21:37:19.548Z,27.27
2019-03-23T21:39:52.659Z,26.83
2019-03-23T21:42:25.624Z,28.27
2019-03-23T21:44:58.608Z,27.43
2019-03-23T21:47:31.574Z,28.03
2019-03-23T21:50:04.832Z,28.40
2019-03-23T21:52:37.787Z,26.77
2019-03-23T21:55:10.850Z,26.80
2019-03-23T21:57:43.922Z,27.40
2019-03-23T22:00:45.764Z,27.30
2019-03-23T22:03:18.897Z,25.43
2019-03-23T22:05:51.970Z,27.47
2019-03-23T22:08:24.951Z,27.00
2019-03-23T22:10:57.907Z,27.20
2019-03-23T22:13:30.887Z,27.03
2019-03-23T22:16:05.278Z,26.23
2019-03-23T22:18:38.604Z,27.50
2019-03-23T22:21:11.553Z,27.43
2019-03-23T22:23:44.522Z,28.20
2019-03-23T22:26:17.481Z,27.07
2019-03-23T22:28:50.736Z,25.13
2019-03-23T22:31:23.789Z,27.17
2019-03-23T22:33:56.778Z,26.00
2019-03-23T22:36:29.749Z,24.97
2019-03-23T22:39:02.820Z,25.17
2019-03-23T22:41:36.047Z,25.90
2019-03-23T22:44:09.028Z,25.97
2019-03-23T22:46:42.008Z,25.23
2019-03-23T22:49:15.277Z,24.77
2019-03-23T22:51:49.256Z,27.00
2019-03-23T22:54:22.303Z,26.63
2019-03-23T22:56:55.250Z,27.57
2019-03-23T22:59:28.233Z,26.53
2019-03-23T23:02:01.208Z,25.50
2019-03-23T23:04:34.209Z,25.87
2019-03-23T23:07:07.159Z,25.27
2019-03-23T23:09:40.151Z,26.23
2019-03-23T23:12:13.116Z,27.10
2019-03-23T23:14:47.974Z,25.50
2019-03-23T23:17:20.948Z,28.47
2019-03-23T23:19:53.982Z,25.83
2019-03-23T23:22:26.985Z,27.90
2019-03-23T23:24:59.960Z,26.23
2019-03-23T23:27:32.999Z,27.00
2019-03-23T23:30:07.692Z,26.90
2019-03-23T23:32:40.797Z,28.47
2019-03-23T23:35:13.863Z,28.40
2019-03-23T23:37:46.837Z,24.60
2019-03-23T23:40:19.803Z,25.57
2019-03-23T23:42:52.796Z,28.03
2019-03-23T23:45:25.870Z,25.97
2019-03-23T23:47:59.931Z,25.73
2019-03-23T23:50:34.045Z,25.03
2019-03-23T23:53:07.047Z,24.83
2019-03-23T23:55:40.064Z,24.80
2019-03-23T23:58:13.050Z,26.33
